Woodland Park Mayors Cup 5K                          
                                 Overall Female                                 
                                 August 11, 2018                                

If you have questions about the results, please send an e-mail to
raceresults@pprrun.org

If you have any input or questions concerning the conduct of the race
contact Cindy Keating at the Woodland Park Parks & Recreation at 687-5225.

Course: Both courses are slightly hilly. The 5K is entirely on paved roads.
At about the 1.25 mile mark the 10K splits away from the common
course and uses the Centennial Trail (macadam) that runs parralel to
Highway 67. This portion is an out and back with several short
hills. The elevation of both courses is in excess of 8,500 feet.

Weather: Sunny and warm, temps in the 60s and rising.

OPlc GPlc AGPlc AGrp   Bib Name                    Age Sex City             St Gun     Chip    Pace    TeamName              
  16    1     1 F20-29  31 Ellen Senf               26  F  Colorado Springs CO 0:21:41 0:21:37 0:06:58 BierWerks Brewery 
  21    2     1 F40-49 179 Michelle Kelly           40  F  Colorado Springs CO 0:22:47 0:22:34 0:07:17  
  23    3     2 F20-29 121 Alana Dillinger          20  F  Woodland Park    CO 0:22:58 0:22:57 0:07:24 Alpha Team 
  31    4     2 F40-49  87 Christina Miner          41  F  Colorado Springs CO 0:24:05 0:24:02 0:07:45  
                            New Personal Course Record!!!
                            Previous Record:  0:26:05 set in 2017

  33    5     3 F20-29 391 Ashley Sherlock          28  F  Colorado Springs CO 0:25:06 0:24:54 0:08:02  
  40    6     4 F20-29 152 Diana Swanson            21  F                      0:26:09 0:26:09 0:08:26 Turbo Team 
  42    7     1 F30-39 200 Kate Smit                37  F  Woodland Park    CO 0:26:34 0:26:31 0:08:33  
                            New Personal Course Record!!!
                            Previous Record:  0:29:10 set in 2017

  46    8     5 F20-29 199 Amelia Blyth             28  F  Colorado Springs CO 0:26:55 0:26:49 0:08:39 Brass 
  47    9     3 F40-49  29 Emily Batson             41  F  Colorado Springs CO 0:26:51 0:26:51 0:08:40  
  48   10     1 F50-59  85 Aysen Kara               54  F  Colorado Springs CO 0:27:10 0:26:56 0:08:41  
  49   11     4 F40-49 198 Mary Hammel              42  F  Colorado Springs CO 0:27:05 0:26:57 0:08:42 Colorado Mtn Brewery 
                            New Personal Course Record!!!
                            Previous Record:  0:31:02 set in 2017

  51   12     6 F20-29 268 Rachel Wright            27  F  Colorado Springs CO 0:27:12 0:27:08 0:08:45  
  55   13     2 F50-59 346 Jenifer Ping             55  F  Colorado Springs CO 0:27:57 0:27:43 0:08:56  
  56   14     1 F15-19 365 Sylvi Vogel              18  F  Woodland Park    CO 0:27:47 0:27:45 0:08:57  
  57   15     5 F40-49 347 Amelia Vrabel            42  F  Colorado Springs CO 0:27:54 0:27:47 0:08:58  
  59   16     2 F30-39  65 Erin Wahler-Cleveland    35  F  Colorado Springs CO 0:28:10 0:28:00 0:09:02  
  61   17     3 F30-39  81 Carrie Renaud            38  F  Colorado Springs CO 0:28:23 0:28:06 0:09:04  
  63   18     4 F30-39 353 Katie Benzel             34  F  Colorado Springs CO 0:28:23 0:28:08 0:09:05  
                            New Personal Course Record!!!
                            Previous Record:  0:49:02 set in 2017

  65   19     1 F60-69  72 Ursula Charlie Charlton  62  F  Colorado Springs CO 0:28:54 0:28:38 0:09:14  
                            New Age-Group Course Record!!! Age-Group: F60-69
                            Previous Record:  0:29:41, set in 2017 by Kate Raphael
                                              age 60, from Colorado Springs CO

  66   20     2 F15-19 503 Samantha Lecky           18  F  Woodland Park    CO 0:28:53 0:28:40 0:09:15  

OPlc GPlc AGPlc AGrp   Bib Name                    Age Sex City             St Gun     Chip    Pace    TeamName              
  67   21     3 F15-19 181 Annika DeWall            18  F  Woodland Park    CO 0:29:03 0:29:00 0:09:21  
  70   22     6 F40-49 117 Karin Lundin             43  F  Colorado Springs CO 0:29:13 0:29:10 0:09:25  
  75   23     5 F30-39 149 Meghan Miller            39  F                      0:29:58 0:29:28 0:09:30  
  76   24     6 F30-39 180 Sarah Roueche            34  F  Manitou Springs  CO 0:29:46 0:29:29 0:09:31  
  77   25     2 F60-69  96 Kate Raphael             61  F  Colorado Springs CO 0:29:59 0:29:46 0:09:36  
  78   26     3 F50-59 501 Stacy Nepp               52  F  Colorado Springs CO 0:30:03 0:29:58 0:09:40 BierWerks Brewery 
  83   27     4 F50-59  40 Jennifer Lefevre         54  F  Woodland Park    CO 0:30:22 0:30:11 0:09:44 Women on Wheels 
  87   28     7 F20-29 116 Karen Ahumada            28  F  Colorado Springs CO 0:30:56 0:30:29 0:09:50  
  89   29     5 F50-59 172 Teresa Rotering          55  F  Colorado Springs CO 0:30:58 0:30:31 0:09:51 Cogstone 
  91   30     6 F50-59 102 Julie Ronshaugen         50  F  Colorado Springs CO 0:31:27 0:31:02 0:10:01  
  92   31     7 F30-39 281 Melanie Stegeman         35  F  Colorado Springs CO 0:31:29 0:31:14 0:10:05  
                            New Personal Course Record!!!
                            Previous Record:  0:47:46 set in 2017

  93   32     8 F30-39  89 Amanda Grieshaber        32  F  Woodland Park    CO 0:31:31 0:31:18 0:10:06  
                            New Personal Course Record!!!
                            Previous Record:  0:41:24 set in 2016

  94   33     7 F50-59 502 Nancy Lecky              54  F  Woodland Park    CO 0:31:44 0:31:31 0:10:10  
  95   34     7 F40-49 505 Vanessa Shawver          46  F  Colorado Springs CO 0:31:46 0:31:35 0:10:11  
  99   35     9 F30-39 246 Nicolette McRoberts      38  F  Woodland Park    CO 0:32:57 0:32:29 0:10:29  
 104   36    10 F30-39  66 Evelyn Spencer           37  F  Colorado Springs CO 0:33:29 0:33:21 0:10:45  
 106   37     8 F50-59 273 Denise Symes             51  F  Woodland Park    CO 0:34:06 0:33:25 0:10:47 Women on Wheels 
 107   38     8 F40-49 108 Dianna Piteo             40  F  Colorado Springs CO 0:33:54 0:33:36 0:10:50  
 108   39    11 F30-39  47 Kinisha Blevins          39  F  Florissant       CO 0:33:53 0:33:38 0:10:51  
 109   40     9 F40-49  70 Nicole Greenberg         43  F  Peyton           CO 0:34:11 0:33:53 0:10:56  

OPlc GPlc AGPlc AGrp   Bib Name                    Age Sex City             St Gun     Chip    Pace    TeamName              
 110   41     1 F10-14  52 Anna Bischoff            11  F  Woodland Park    CO 0:34:31 0:34:10 0:11:01  
                            New Personal Course Record!!!
                            Previous Record:  0:38:23 set in 2017

 111   42    10 F40-49 248 Paige Graham             41  F  Woodland Park    CO 0:34:52 0:34:31 0:11:08  
 112   43     1 F01-09 145 Madelyn Lohmeier          8  F                      0:35:19 0:34:43 0:11:12  
 113   44    11 F40-49 144 Erin Lohmeier            43  F                      0:35:19 0:34:43 0:11:12  
 115   45    12 F30-39 114 Kellee Briggs            37  F  Colorado Springs CO 0:35:11 0:35:06 0:11:19  
 116   46    13 F30-39 161 Brianne Simmons          30  F  Colorado Springs CO 0:35:42 0:35:12 0:11:21  
 117   47    12 F40-49 134 Katherine Petty          49  F  Woodland Park    CO 0:35:48 0:35:26 0:11:26  
 118   48    14 F30-39 165 Chelsea Berlingieri      34  F  Colorado Springs CO 0:39:11 0:35:50 0:11:34  
 122   49    15 F30-39 374 Alyssa Herman            32  F  Colorado Springs CO 0:37:26 0:36:54 0:11:54  
 123   50    13 F40-49  33 Bridget Meyers           45  F  Colorado Springs CO 0:37:30 0:36:57 0:11:55  
 125   51     9 F50-59 509 Alana Ybarra             52  F  Fountain         CO 0:37:29 0:37:06 0:11:58  
 126   52    16 F30-39  36 Jessica Alt              33  F  Fountain         CO 0:37:37 0:37:13 0:12:00  
 127   53    14 F40-49 389 Emily Lendzion           40  F  Colorado Springs CO 0:37:42 0:37:15 0:12:01  
                            New Personal Course Record!!!
                            Previous Record:  0:40:58 set in 2017

 128   54    15 F40-49 295 Dorie Sifford            45  F  Colorado Springs CO 0:37:42 0:37:15 0:12:01  
 129   55    17 F30-39 377 Joanna Anderson          30  F  Colorado Springs CO 0:38:23 0:37:20 0:12:03  
 130   56    10 F50-59 474 Laurie Keller            50  F  Colorado Springs CO 0:37:53 0:37:20 0:12:03  
 132   57    11 F50-59 139 Maria Heffernan          53  F                      0:37:41 0:37:22 0:12:03  
                            New Personal Course Record!!!
                            Previous Record:  0:37:55 set in 2015

 134   58     3 F60-69 187 Deb Anderson             68  F  Colorado Springs CO 0:38:09 0:37:41 0:12:09  
 137   59    12 F50-59 101 Debbie Boesche           53  F  Dekalb           IL 0:39:01 0:38:20 0:12:22  
 140   60     8 F20-29 135 Victoria Cox             23  F  Colorado Springs CO 0:39:27 0:38:57 0:12:34  

OPlc GPlc AGPlc AGrp   Bib Name                    Age Sex City             St Gun     Chip    Pace    TeamName              
 142   61    16 F40-49  49 Michaela Castle          43  F  Colorado Springs CO 0:39:54 0:39:24 0:12:43  
 143   62     4 F60-69 343 Lora Wilson              66  F  Florissant       CO 0:40:07 0:39:42 0:12:48  
 144   63    17 F40-49  39 Rachel Newton            48  F  Divide           CO 0:40:23 0:39:42 0:12:48 Women on Wheels 
 145   64    13 F50-59 109 Scheila Watson           53  F  Woodland Park    CO 0:40:25 0:39:44 0:12:49 Women on Wheels 
 146   65    18 F40-49 120 Heather Walma            42  F                      0:41:22 0:40:57 0:13:13  
 150   66    19 F40-49  74 Valerie Robertson        43  F  Littleton        CO 0:42:15 0:41:45 0:13:28  
 152   67    20 F40-49 266 Gwena Rinaldi            46  F  Florissant       CO 0:42:52 0:42:21 0:13:40  
 154   68    14 F50-59 363 Martine Vogel            51  F  Woodland Park    CO 0:43:08 0:42:39 0:13:45  
 156   69    18 F30-39  53 Danielle Bischoff        36  F  Woodland Park    CO 0:43:14 0:42:52 0:13:50  
 157   70    19 F30-39 147 Emi Green                33  F  Peyton           CO 0:43:26 0:43:07 0:13:55  
 158   71    21 F40-49 148 Dana Gillette            44  F  Peyton           CO 0:43:25 0:43:08 0:13:55  
 160   72    22 F40-49 337 Makala Letsche           43  F  Falcon           CO 0:44:04 0:43:52 0:14:09  
 161   73     5 F60-69  93 Eileen Healy             60  F  Colorado Springs CO 0:45:08 0:44:30 0:14:21  
 164   74    23 F40-49 265 Elena Sharp              47  F  Woodland Park    CO 0:45:25 0:45:11 0:14:35  
                            New Personal Course Record!!!
                            Previous Record:  0:59:44 set in 2012

 165   75    24 F40-49 485 Melissa Wesenberg        48  F  Colorado Springs CO 0:46:15 0:45:36 0:14:43  
 167   76    25 F40-49 379 Genie Ryan               47  F  Colorado Springs CO 0:46:22 0:45:44 0:14:45  
 168   77    20 F30-39 507 Christina Salisbury      34  F  Manitou Springs  CO 0:46:47 0:46:09 0:14:53 Local Relic 
 169   78    21 F30-39 164 Sheva Willoughby         32  F  Colorado Springs CO 0:46:27 0:46:10 0:14:54  
 170   79     1 F70-98 251 Beverly Weaver           72  F  Colorado Springs CO 0:46:41 0:46:17 0:14:56  
 171   80    22 F30-39 397 Melissa Rolli            37  F  Monument         CO 0:47:23 0:46:45 0:15:05  

OPlc GPlc AGPlc AGrp   Bib Name                    Age Sex City             St Gun     Chip    Pace    TeamName              
 172   81     2 F70-98  62 Karen Thompson           70  F  Divide           CO 0:47:22 0:46:57 0:15:09  
 173   82     2 F10-14 384 Alyssa Comstock          14  F  Colorado Springs CO 0:47:44 0:47:14 0:15:14  
 174   83    23 F30-39 159 Jennifer Gibson          34  F  Woodland Park    CO 0:48:07 0:47:29 0:15:19  
 175   84     6 F60-69  54 Brenda Cowell            62  F  Woodland Park    CO 0:47:54 0:47:32 0:15:20  
 176   85    15 F50-59 110 Becky France             56  F  Colorado Springs CO 0:48:28 0:47:48 0:15:25  
 177   86    16 F50-59 280 Cheryl Trousdale         54  F  Peyton           CO 0:48:25 0:48:14 0:15:34  
 178   87    17 F50-59 132 Susan Hendron            56  F                      0:48:46 0:48:19 0:15:35  
 179   88    18 F50-59 131 Tammy Bailey             56  F                      0:48:47 0:48:21 0:15:36  
 180   89     7 F60-69  51 Joy Merenda              65  F  Woodland Park    CO 0:48:41 0:48:26 0:15:37  
 181   90    19 F50-59  58 Genevieve Robbins        53  F  Colorado Springs CO 0:48:57 0:48:44 0:15:43  
 183   91    26 F40-49 263 Jennifer Bliss           43  F  Colorado Springs CO 0:49:45 0:49:09 0:15:51  
 184   92    20 F50-59 394 Kimberly Reece           57  F  Colorado Springs CO 0:50:23 0:49:53 0:16:05  
 185   93    27 F40-49 387 Shae Comstock            44  F  Colorado Springs CO 0:50:23 0:49:54 0:16:06  
 186   94    24 F30-39 292 Lisa Pitts               39  F  Divide           CO 0:50:20 0:50:01 0:16:08  
 187   95    25 F30-39 392 Darrah Zinn              37  F  Colorado Springs CO 0:51:43 0:51:24 0:16:35  
 188   96    28 F40-49 334 Kelly Knott              43  F  Woodland Park    CO 0:52:58 0:52:35 0:16:58 BierWerks Brewery 
 191   97    29 F40-49 260 Debbie Marques           42  F  Colorado Springs CO 0:53:28 0:52:52 0:17:03  
 192   98    21 F50-59 100 Joline Harrison          51  F  Monument         CO 0:54:13 0:53:41 0:17:19  
 193   99    22 F50-59 243 Janice Skocich           50  F  Elbert           CO 0:54:13 0:53:42 0:17:19  
 194  100     8 F60-69 247 Roberta McCoy            60  F  Colorado Springs CO 0:54:09 0:53:59 0:17:25  

OPlc GPlc AGPlc AGrp   Bib Name                    Age Sex City             St Gun     Chip    Pace    TeamName              
 195  101    23 F50-59 257 Annetra Warren           53  F  Colorado Springs CO 0:54:10 0:53:59 0:17:25  
 196  102    24 F50-59 499 Dawn Bowling             54  F  Colorado Springs CO 0:54:10 0:53:59 0:17:25  
                            New Personal Course Record!!!
                            Previous Record:  1:05:04 set in 2015

 197  103     9 F20-29 163 Brittany Norris          29  F  Colorado Springs CO 0:54:44 0:54:06 0:17:27  
 198  104    25 F50-59 398 Kimberly Adams-Short     50  F  Colorado Springs CO 0:54:39 0:54:07 0:17:27  
 200  105    30 F40-49  34 Karen Masias             41  F  Colorado Springs CO 0:54:39 0:54:07 0:17:27  
                            New Personal Course Record!!!
                            Previous Record:  0:54:21 set in 2017

 201  106    31 F40-49  46 Carrie Grover            46  F  Peyton           CO 0:54:47 0:54:35 0:17:36  
 202  107    26 F50-59 382 Andrea Hurlbert          53  F  Colorado Springs CO 0:54:47 0:54:37 0:17:37  
 203  108     9 F60-69  78 Julie Stanley            60  F  Woodland Park    CO 0:57:07 0:56:16 0:18:09  
 204  109    27 F50-59 338 Rhonda Hodges            55  F  Colorado Springs CO 0:57:10 0:56:18 0:18:10  
 206  110    32 F40-49 107 Megan Tudor              41  F  Everett          WA 1:02:15 1:01:45 0:19:55  
 207  111    33 F40-49 106 Allison Hoover           46  F  Colorado Springs CO 1:02:16 1:01:47 0:19:56  
 208  112              197 Gina Britto               0  F                      1:18:03 1:17:16 0:24:55 Team Browning 
 209  113    34 F40-49 195 Carolann Browning        46  F  Monument         CO 1:18:02 1:17:19 0:24:56 Team Browning